createdAt,value
2022-07-30T00:00:25.864Z,19.77
2022-07-30T00:02:53.084Z,19.70
2022-07-30T00:05:20.416Z,19.71
2022-07-30T00:07:47.469Z,19.69
2022-07-30T00:10:14.254Z,19.70
2022-07-30T00:12:40.947Z,19.72
2022-07-30T00:15:08.299Z,19.71
2022-07-30T00:17:34.930Z,19.62
2022-07-30T00:20:01.789Z,19.53
2022-07-30T00:22:30.723Z,19.62
2022-07-30T00:24:57.436Z,19.58
2022-07-30T00:27:24.121Z,19.35
2022-07-30T00:29:50.739Z,19.26
2022-07-30T00:32:17.425Z,19.15
2022-07-30T00:34:44.068Z,19.17
2022-07-30T00:37:10.772Z,19.25
2022-07-30T00:39:37.378Z,19.11
2022-07-30T00:42:04.441Z,19.02
2022-07-30T00:44:31.208Z,19.09
2022-07-30T00:46:58.808Z,19.03
2022-07-30T00:49:25.862Z,19.03
2022-07-30T00:51:53.218Z,18.89
2022-07-30T00:54:21.361Z,18.78
2022-07-30T00:56:48.940Z,18.61
2022-07-30T00:59:16.105Z,18.76
2022-07-30T01:01:42.898Z,18.66
2022-07-30T01:04:14.066Z,18.68
2022-07-30T01:06:41.298Z,18.72
2022-07-30T01:09:08.207Z,18.77
2022-07-30T01:11:40.445Z,18.88
2022-07-30T01:14:08.441Z,18.79
2022-07-30T01:16:37.972Z,18.80
2022-07-30T01:19:28.739Z,18.71
2022-07-30T01:22:07.259Z,18.66
2022-07-30T01:24:37.034Z,18.77
2022-07-30T01:27:05.056Z,18.72
2022-07-30T01:29:34.021Z,18.66
2022-07-30T01:32:03.202Z,18.80
2022-07-30T01:34:31.915Z,18.57
2022-07-30T01:36:59.694Z,18.56
2022-07-30T01:39:27.023Z,18.62
2022-07-30T01:41:54.684Z,18.58
2022-07-30T01:44:23.826Z,18.53
2022-07-30T01:46:53.690Z,18.36
2022-07-30T01:49:22.227Z,18.26
2022-07-30T01:51:49.573Z,18.18
2022-07-30T01:54:18.288Z,18.18
2022-07-30T01:56:46.536Z,18.23
2022-07-30T01:59:14.772Z,18.25
2022-07-30T02:01:41.770Z,18.25
2022-07-30T02:04:08.680Z,18.23
2022-07-30T02:06:42.418Z,18.14
2022-07-30T02:09:15.954Z,18.37
2022-07-30T02:12:05.907Z,18.27
2022-07-30T02:14:48.290Z,18.21
2022-07-30T02:17:30.192Z,18.28
2022-07-30T02:19:57.750Z,18.22
2022-07-30T02:22:26.424Z,17.94
2022-07-30T02:24:53.565Z,18.08
2022-07-30T02:27:24.770Z,17.84
2022-07-30T02:29:52.585Z,17.93
2022-07-30T02:32:20.932Z,17.88
2022-07-30T02:34:53.345Z,17.93
2022-07-30T02:37:39.268Z,17.71
2022-07-30T02:40:11.423Z,17.73
2022-07-30T02:42:39.030Z,17.57
2022-07-30T02:45:06.628Z,17.54
2022-07-30T02:47:33.771Z,17.35
2022-07-30T02:50:04.005Z,17.49
2022-07-30T02:52:32.482Z,17.27
2022-07-30T02:55:00.487Z,17.26
2022-07-30T02:57:31.249Z,17.33
2022-07-30T02:59:59.374Z,17.20
2022-07-30T03:02:29.579Z,17.25
2022-07-30T03:04:59.166Z,17.60
2022-07-30T03:07:27.486Z,17.58
2022-07-30T03:09:56.408Z,17.33
2022-07-30T03:12:25.990Z,17.60
2022-07-30T03:14:52.775Z,17.62
2022-07-30T03:17:20.004Z,17.40
2022-07-30T03:19:48.772Z,17.50
2022-07-30T03:22:18.072Z,17.54
2022-07-30T03:24:45.872Z,17.55
2022-07-30T03:27:13.835Z,17.64
2022-07-30T03:29:42.122Z,17.58
2022-07-30T03:32:09.142Z,17.65
2022-07-30T03:34:41.549Z,17.73
2022-07-30T03:37:08.823Z,17.75
2022-07-30T03:39:36.283Z,17.82
2022-07-30T03:42:07.108Z,17.77
2022-07-30T03:44:35.248Z,17.57
2022-07-30T03:47:05.482Z,17.41
2022-07-30T03:49:40.322Z,17.56
2022-07-30T03:52:09.806Z,17.26
2022-07-30T03:54:37.121Z,17.38
2022-07-30T03:57:22.819Z,17.45
2022-07-30T03:59:51.732Z,17.56
2022-07-30T04:02:20.352Z,17.47
2022-07-30T04:05:10.119Z,17.51
2022-07-30T04:07:41.414Z,17.60
2022-07-30T04:10:21.214Z,17.62
2022-07-30T04:13:00.400Z,17.45
2022-07-30T04:16:35.021Z,17.51
2022-07-30T04:18:17.489Z,17.51
2022-07-30T04:20:46.517Z,17.52
2022-07-30T04:23:14.388Z,17.63
2022-07-30T04:25:43.685Z,17.74
2022-07-30T04:28:11.877Z,17.67
2022-07-30T04:30:38.850Z,17.51
2022-07-30T04:33:05.646Z,17.60
2022-07-30T04:35:52.393Z,17.65
2022-07-30T04:38:31.608Z,17.83
2022-07-30T04:40:58.538Z,18.00
2022-07-30T04:43:28.203Z,17.93
2022-07-30T04:45:55.134Z,17.88
2022-07-30T04:48:22.205Z,17.88
2022-07-30T04:50:50.225Z,17.98
2022-07-30T04:53:19.819Z,18.06
2022-07-30T04:55:54.247Z,17.97
2022-07-30T04:58:25.835Z,18.17
2022-07-30T05:00:57.081Z,17.80
2022-07-30T05:03:33.574Z,17.55
2022-07-30T05:06:01.212Z,17.62
2022-07-30T05:08:31.681Z,17.69
2022-07-30T05:11:02.160Z,17.55
2022-07-30T05:13:34.316Z,17.70
2022-07-30T05:16:03.406Z,17.70
2022-07-30T05:18:30.218Z,17.55
2022-07-30T05:20:57.104Z,17.37
2022-07-30T05:23:50.821Z,17.36
2022-07-30T05:26:27.599Z,17.34
2022-07-30T05:28:56.978Z,17.22
2022-07-30T05:31:31.218Z,17.30
2022-07-30T05:34:03.457Z,17.42
2022-07-30T05:36:40.693Z,17.40
2022-07-30T05:39:07.678Z,17.64
2022-07-30T05:41:56.473Z,17.40
2022-07-30T05:44:31.045Z,17.64
2022-07-30T05:46:58.958Z,17.60
2022-07-30T05:49:25.886Z,17.34
2022-07-30T05:51:56.360Z,17.23
2022-07-30T05:54:24.605Z,17.36
2022-07-30T05:57:17.445Z,17.60
2022-07-30T05:59:44.460Z,17.46
2022-07-30T06:02:24.515Z,17.40
2022-07-30T06:04:57.418Z,17.39
2022-07-30T06:07:25.070Z,17.41
2022-07-30T06:09:54.234Z,17.57
2022-07-30T06:12:21.049Z,17.34
2022-07-30T06:14:48.263Z,17.43
2022-07-30T06:17:22.263Z,17.70
2022-07-30T06:20:18.602Z,17.60
2022-07-30T06:23:11.426Z,17.67
2022-07-30T06:25:56.963Z,17.54
2022-07-30T06:28:39.822Z,17.66
2022-07-30T06:31:22.330Z,17.60
2022-07-30T06:33:49.268Z,17.68
2022-07-30T06:36:16.450Z,17.62
2022-07-30T06:38:52.255Z,17.67
2022-07-30T06:41:29.952Z,17.53
2022-07-30T06:43:58.862Z,17.49
2022-07-30T06:46:44.025Z,17.59
2022-07-30T06:49:11.913Z,17.63
2022-07-30T06:51:41.067Z,17.59
2022-07-30T06:54:07.830Z,17.77
2022-07-30T06:56:34.673Z,18.08
2022-07-30T06:59:04.653Z,18.27
2022-07-30T07:01:50.490Z,18.25
2022-07-30T07:04:17.816Z,18.48
2022-07-30T07:06:44.743Z,18.68
2022-07-30T07:09:15.807Z,18.66
2022-07-30T07:11:50.333Z,18.67
2022-07-30T07:14:19.729Z,18.53
2022-07-30T07:16:48.858Z,18.58
2022-07-30T07:20:01.785Z,18.59
2022-07-30T07:22:21.110Z,18.76
2022-07-30T07:24:47.776Z,18.64
2022-07-30T07:27:20.952Z,18.69
2022-07-30T07:30:01.336Z,18.70
2022-07-30T07:32:34.273Z,18.73
2022-07-30T07:35:01.706Z,18.45
2022-07-30T07:37:29.258Z,18.41
2022-07-30T07:39:56.914Z,18.63
2022-07-30T07:42:23.970Z,18.68
2022-07-30T07:44:51.661Z,18.74
2022-07-30T07:47:18.862Z,18.82
2022-07-30T07:50:00.453Z,18.67
2022-07-30T07:52:27.248Z,18.85
2022-07-30T07:54:54.850Z,18.77
2022-07-30T07:57:22.110Z,18.81
2022-07-30T07:59:48.937Z,18.88
2022-07-30T08:02:28.705Z,18.93
2022-07-30T08:05:08.019Z,19.09
2022-07-30T08:07:51.266Z,19.02
2022-07-30T08:10:19.104Z,19.13
2022-07-30T08:13:52.728Z,19.15
2022-07-30T08:16:14.778Z,19.05
2022-07-30T08:18:59.811Z,19.14
2022-07-30T08:21:48.147Z,19.26
2022-07-30T08:24:17.488Z,19.27
2022-07-30T08:26:44.299Z,19.18
2022-07-30T08:29:15.476Z,19.14
2022-07-30T08:31:44.777Z,19.14
2022-07-30T08:34:13.447Z,19.14
2022-07-30T08:36:40.764Z,19.26
2022-07-30T08:39:07.836Z,19.30
2022-07-30T08:41:36.732Z,19.42
2022-07-30T08:44:06.911Z,19.45
2022-07-30T08:46:41.407Z,19.55
2022-07-30T08:49:25.736Z,19.47
2022-07-30T08:51:52.714Z,19.44
2022-07-30T08:54:40.820Z,19.46
2022-07-30T08:57:08.236Z,19.55
2022-07-30T08:59:59.321Z,19.58
2022-07-30T09:02:31.173Z,19.49
2022-07-30T09:05:03.858Z,19.54
2022-07-30T09:07:32.853Z,19.62
2022-07-30T09:10:05.800Z,19.68
2022-07-30T09:12:37.027Z,19.69
2022-07-30T09:15:15.752Z,19.78
2022-07-30T09:17:59.039Z,19.87
2022-07-30T09:20:36.726Z,20.01
2022-07-30T09:23:07.867Z,20.04
2022-07-30T09:25:59.148Z,20.13
2022-07-30T09:28:41.178Z,20.25
2022-07-30T09:31:13.984Z,20.17
2022-07-30T09:33:59.895Z,20.11
2022-07-30T09:36:44.863Z,20.03
2022-07-30T09:39:34.949Z,20.00
2022-07-30T09:42:29.171Z,20.12
2022-07-30T09:45:12.646Z,20.18
2022-07-30T09:47:44.967Z,20.22
2022-07-30T09:50:17.930Z,20.33
2022-07-30T09:53:09.134Z,20.31
2022-07-30T09:55:42.105Z,20.34
2022-07-30T09:58:13.041Z,20.24
2022-07-30T10:00:59.418Z,20.19
2022-07-30T10:03:53.406Z,20.24
2022-07-30T10:06:43.003Z,20.34
2022-07-30T10:09:37.532Z,20.37
2022-07-30T10:12:11.065Z,20.44
2022-07-30T10:14:45.164Z,20.49
2022-07-30T10:17:15.356Z,20.36
2022-07-30T10:19:53.860Z,20.39
2022-07-30T10:22:54.221Z,20.44
2022-07-30T10:25:27.930Z,20.50
2022-07-30T10:28:14.461Z,20.41
2022-07-30T10:30:43.683Z,20.44
2022-07-30T10:33:35.187Z,20.52
2022-07-30T10:35:59.398Z,20.50
2022-07-30T10:38:33.243Z,20.64
2022-07-30T10:41:44.471Z,20.64
2022-07-30T10:44:27.689Z,20.62
2022-07-30T10:47:06.916Z,20.72
2022-07-30T10:49:40.563Z,20.73
2022-07-30T10:52:08.892Z,20.79
2022-07-30T10:54:39.460Z,20.82
2022-07-30T10:57:22.564Z,20.78
2022-07-30T10:59:50.635Z,20.84
2022-07-30T11:02:21.779Z,20.89
2022-07-30T11:04:50.398Z,20.90
2022-07-30T11:07:30.639Z,20.94
2022-07-30T11:10:09.082Z,20.98
2022-07-30T11:12:43.907Z,20.95
2022-07-30T11:15:18.295Z,21.05
2022-07-30T11:17:59.546Z,20.94
2022-07-30T11:20:30.967Z,20.97
2022-07-30T11:23:19.730Z,21.04
2022-07-30T11:25:51.485Z,21.06
2022-07-30T11:28:38.866Z,21.08
2022-07-30T11:31:37.198Z,21.21
2022-07-30T11:34:19.413Z,21.33
2022-07-30T11:37:18.182Z,21.25
2022-07-30T11:39:55.667Z,21.27
2022-07-30T11:42:39.803Z,21.35
2022-07-30T11:45:15.795Z,21.44
2022-07-30T11:47:54.056Z,21.58
2022-07-30T11:50:29.194Z,21.65
2022-07-30T11:53:02.131Z,21.62
2022-07-30T11:55:37.179Z,21.75
2022-07-30T11:58:06.566Z,21.89
2022-07-30T12:00:48.108Z,22.02
2022-07-30T12:03:16.443Z,22.04
2022-07-30T12:05:43.613Z,21.98
2022-07-30T12:08:35.929Z,21.95
2022-07-30T12:11:01.697Z,22.22
2022-07-30T12:13:45.359Z,22.30
2022-07-30T12:16:16.855Z,22.38
2022-07-30T12:18:44.407Z,22.46
2022-07-30T12:21:12.955Z,22.57
2022-07-30T12:23:43.246Z,22.57
2022-07-30T12:26:26.626Z,22.83
2022-07-30T12:28:55.190Z,22.73
2022-07-30T12:31:22.565Z,22.70
2022-07-30T12:33:49.435Z,22.69
2022-07-30T12:36:35.812Z,22.81
2022-07-30T12:39:04.959Z,22.96
2022-07-30T12:41:49.280Z,23.04
2022-07-30T12:44:35.829Z,23.03
2022-07-30T12:47:07.602Z,22.87
2022-07-30T12:49:36.870Z,22.94
2022-07-30T12:52:28.337Z,22.88
2022-07-30T12:54:58.712Z,22.83
2022-07-30T12:57:29.344Z,22.86
2022-07-30T13:00:08.132Z,22.96
2022-07-30T13:02:35.257Z,23.02
2022-07-30T13:05:10.813Z,23.07
2022-07-30T13:07:53.666Z,23.03
2022-07-30T13:10:20.356Z,23.27
2022-07-30T13:12:50.608Z,23.22
2022-07-30T13:15:22.464Z,23.29
2022-07-30T13:17:52.220Z,23.29
2022-07-30T13:20:18.932Z,23.10
2022-07-30T13:22:45.711Z,23.12
2022-07-30T13:25:13.069Z,23.22
2022-07-30T13:27:40.167Z,23.16
2022-07-30T13:30:07.514Z,23.24
2022-07-30T13:32:34.161Z,23.25
2022-07-30T13:35:01.720Z,23.29
2022-07-30T13:37:38.397Z,23.21
2022-07-30T13:40:08.586Z,23.19
2022-07-30T13:42:35.514Z,23.18
2022-07-30T13:45:02.980Z,23.09
2022-07-30T13:47:30.365Z,23.01
2022-07-30T13:49:57.105Z,23.16
2022-07-30T13:52:23.824Z,23.34
2022-07-30T13:54:52.538Z,23.12
2022-07-30T13:57:19.410Z,23.27
2022-07-30T13:59:46.532Z,23.39
2022-07-30T14:02:13.629Z,23.30
2022-07-30T14:04:40.380Z,23.27
2022-07-30T14:07:07.251Z,23.37
2022-07-30T14:09:33.986Z,23.27
2022-07-30T14:12:11.741Z,23.32
2022-07-30T14:14:38.538Z,23.47
2022-07-30T14:17:05.333Z,23.68
2022-07-30T14:19:32.363Z,23.74
2022-07-30T14:21:59.247Z,23.62
2022-07-30T14:24:27.011Z,23.82
2022-07-30T14:26:58.776Z,23.65
2022-07-30T14:29:26.940Z,23.69
2022-07-30T14:31:54.325Z,23.55
2022-07-30T14:34:21.118Z,23.61
2022-07-30T14:36:48.050Z,23.60
2022-07-30T14:39:14.904Z,23.57
2022-07-30T14:41:43.003Z,23.58
2022-07-30T14:44:12.168Z,23.57
2022-07-30T14:46:51.536Z,23.54
2022-07-30T14:49:20.075Z,23.65
2022-07-30T14:51:47.466Z,23.70
2022-07-30T14:54:14.431Z,23.69
2022-07-30T14:56:41.792Z,23.87
2022-07-30T14:59:08.613Z,23.94
2022-07-30T15:01:35.409Z,23.83
2022-07-30T15:04:02.196Z,24.07
2022-07-30T15:06:28.951Z,24.07
2022-07-30T15:08:56.086Z,24.09
2022-07-30T15:11:22.793Z,24.04
2022-07-30T15:13:50.730Z,23.92
2022-07-30T15:16:18.785Z,24.07
2022-07-30T15:18:45.954Z,24.18
2022-07-30T15:21:12.630Z,24.39
2022-07-30T15:23:39.386Z,24.43
2022-07-30T15:26:06.161Z,24.52
2022-07-30T15:28:35.155Z,24.57
2022-07-30T15:31:01.884Z,24.68
2022-07-30T15:33:28.669Z,24.68
2022-07-30T15:35:56.025Z,24.67
2022-07-30T15:38:22.878Z,24.55
2022-07-30T15:40:49.664Z,24.50
2022-07-30T15:43:17.248Z,24.39
2022-07-30T15:45:55.812Z,24.54
2022-07-30T15:48:24.951Z,24.57
2022-07-30T15:51:05.729Z,24.63
2022-07-30T15:53:32.721Z,24.69
2022-07-30T15:56:00.288Z,24.66
2022-07-30T15:58:39.219Z,24.69
2022-07-30T16:01:08.747Z,24.56
2022-07-30T16:03:35.503Z,24.66
2022-07-30T16:06:02.949Z,24.60
2022-07-30T16:08:29.741Z,24.67
2022-07-30T16:10:56.532Z,24.79
2022-07-30T16:13:23.904Z,24.66
2022-07-30T16:15:50.761Z,24.66
2022-07-30T16:18:17.613Z,24.64
2022-07-30T16:20:44.537Z,24.66
2022-07-30T16:23:14.930Z,24.51
2022-07-30T16:25:46.334Z,24.37
2022-07-30T16:28:13.901Z,24.31
2022-07-30T16:30:50.898Z,24.21
2022-07-30T16:33:20.219Z,24.05
2022-07-30T16:35:48.982Z,24.03
2022-07-30T16:38:19.237Z,24.01
2022-07-30T16:40:46.253Z,24.08
2022-07-30T16:43:15.669Z,24.05
2022-07-30T16:45:47.265Z,24.13
2022-07-30T16:48:14.190Z,24.40
2022-07-30T16:50:41.999Z,24.25
2022-07-30T16:53:13.844Z,24.24
2022-07-30T16:55:42.537Z,24.23
2022-07-30T16:58:10.357Z,24.26
2022-07-30T17:00:37.423Z,24.23
2022-07-30T17:03:04.622Z,24.17
2022-07-30T17:05:31.361Z,24.09
2022-07-30T17:07:58.293Z,23.93
2022-07-30T17:10:26.607Z,23.94
2022-07-30T17:12:54.543Z,23.86
2022-07-30T17:15:32.154Z,23.69
2022-07-30T17:18:00.299Z,23.63
2022-07-30T17:20:27.110Z,23.74
2022-07-30T17:22:56.537Z,23.74
2022-07-30T17:25:27.428Z,23.73
2022-07-30T17:27:58.588Z,23.78
2022-07-30T17:30:27.520Z,23.88
2022-07-30T17:32:54.497Z,23.84
2022-07-30T17:35:24.719Z,23.92
2022-07-30T17:37:51.991Z,24.16
2022-07-30T17:40:28.989Z,24.20
2022-07-30T17:43:05.936Z,24.20
2022-07-30T17:45:34.727Z,24.05
2022-07-30T17:48:02.049Z,24.15
2022-07-30T17:50:30.757Z,24.43
2022-07-30T17:52:57.617Z,24.22
2022-07-30T17:55:25.235Z,24.04
2022-07-30T17:57:52.449Z,23.96
2022-07-30T18:00:19.434Z,23.89
2022-07-30T18:02:46.268Z,23.80
2022-07-30T18:05:15.700Z,23.79
2022-07-30T18:07:43.842Z,23.75
2022-07-30T18:10:11.592Z,23.74
2022-07-30T18:12:38.664Z,23.61
2022-07-30T18:15:06.754Z,23.62
2022-07-30T18:17:34.073Z,23.49
2022-07-30T18:20:01.560Z,23.37
2022-07-30T18:22:29.755Z,23.39
2022-07-30T18:25:00.678Z,23.33
2022-07-30T18:27:28.021Z,23.33
2022-07-30T18:29:58.019Z,23.29
2022-07-30T18:32:25.502Z,23.21
2022-07-30T18:34:52.646Z,23.20
2022-07-30T18:37:19.594Z,23.11
2022-07-30T18:39:46.581Z,23.09
2022-07-30T18:42:13.640Z,23.07
2022-07-30T18:44:40.642Z,23.15
2022-07-30T18:47:07.664Z,23.03
2022-07-30T18:49:37.005Z,22.99
2022-07-30T18:52:04.860Z,22.95
2022-07-30T18:54:33.956Z,22.94
2022-07-30T18:57:01.069Z,22.91
2022-07-30T18:59:27.899Z,23.06
2022-07-30T19:01:54.924Z,23.11
2022-07-30T19:04:21.954Z,22.94
2022-07-30T19:06:48.811Z,22.88
2022-07-30T19:10:02.293Z,22.90
2022-07-30T19:12:32.201Z,22.95
2022-07-30T19:15:05.470Z,23.05
2022-07-30T19:17:45.959Z,23.06
2022-07-30T19:20:17.812Z,22.96
2022-07-30T19:22:46.913Z,23.01
2022-07-30T19:25:14.186Z,23.00
2022-07-30T19:27:41.238Z,23.06
2022-07-30T19:30:08.491Z,23.03
2022-07-30T19:32:35.322Z,23.00
2022-07-30T19:35:02.846Z,22.94
2022-07-30T19:37:29.558Z,22.89
2022-07-30T19:40:06.409Z,22.85
2022-07-30T19:42:34.017Z,22.91
2022-07-30T19:45:11.166Z,22.90
2022-07-30T19:47:39.749Z,22.88
2022-07-30T19:50:10.353Z,22.76
2022-07-30T19:52:51.208Z,22.78
2022-07-30T19:55:35.783Z,22.73
2022-07-30T19:58:04.879Z,22.74
2022-07-30T20:00:49.456Z,22.74
2022-07-30T20:03:25.334Z,22.68
2022-07-30T20:05:57.390Z,22.67
2022-07-30T20:08:29.335Z,22.62
2022-07-30T20:10:57.694Z,22.61
2022-07-30T20:13:45.408Z,22.60
2022-07-30T20:16:14.272Z,22.61
2022-07-30T20:18:42.155Z,22.66
2022-07-30T20:21:14.594Z,22.63
2022-07-30T20:23:42.298Z,22.67
2022-07-30T20:26:13.401Z,22.65
2022-07-30T20:28:52.884Z,22.65
2022-07-30T20:31:20.502Z,22.56
2022-07-30T20:33:50.259Z,22.55
2022-07-30T20:36:18.506Z,22.57
2022-07-30T20:38:47.146Z,22.58
2022-07-30T20:41:14.990Z,22.61
2022-07-30T20:43:51.543Z,22.52
2022-07-30T20:46:23.954Z,22.52
2022-07-30T20:48:55.532Z,22.51
2022-07-30T20:51:32.956Z,22.54
2022-07-30T20:54:01.665Z,22.48
2022-07-30T20:56:28.755Z,22.36
2022-07-30T20:58:57.058Z,22.31
2022-07-30T21:01:23.844Z,22.23
2022-07-30T21:03:50.785Z,22.19
2022-07-30T21:06:17.689Z,22.21
2022-07-30T21:08:44.750Z,22.20
2022-07-30T21:11:12.537Z,22.20
2022-07-30T21:14:01.380Z,22.21
2022-07-30T21:16:30.552Z,22.20
2022-07-30T21:18:57.496Z,22.23
2022-07-30T21:21:30.411Z,22.26
2022-07-30T21:24:05.585Z,22.19
2022-07-30T21:26:32.391Z,22.16
2022-07-30T21:29:00.757Z,22.11
2022-07-30T21:32:00.309Z,22.13
2022-07-30T21:34:14.719Z,22.13
2022-07-30T21:36:45.990Z,22.08
2022-07-30T21:39:15.850Z,22.11
2022-07-30T21:41:42.705Z,22.12
2022-07-30T21:44:10.020Z,22.09
2022-07-30T21:46:38.007Z,22.06
2022-07-30T21:49:07.080Z,22.08
2022-07-30T21:51:34.846Z,22.05
2022-07-30T21:54:01.772Z,22.02
2022-07-30T21:56:33.883Z,21.96
2022-07-30T21:59:00.559Z,21.90
2022-07-30T22:01:27.215Z,21.86
2022-07-30T22:04:03.554Z,21.89
2022-07-30T22:06:40.396Z,21.93
2022-07-30T22:09:19.061Z,21.92
2022-07-30T22:12:01.160Z,21.86
2022-07-30T22:14:29.819Z,21.87
2022-07-30T22:16:58.284Z,21.83
2022-07-30T22:19:25.981Z,21.82
2022-07-30T22:21:53.234Z,21.82
2022-07-30T22:24:29.349Z,21.74
2022-07-30T22:27:10.694Z,21.77
2022-07-30T22:29:42.992Z,21.71
2022-07-30T22:32:10.945Z,21.81
2022-07-30T22:34:37.929Z,21.85
2022-07-30T22:37:04.583Z,21.86
2022-07-30T22:39:51.535Z,21.87
2022-07-30T22:42:24.569Z,21.82
2022-07-30T22:44:52.465Z,21.83
2022-07-30T22:47:50.192Z,21.77
2022-07-30T22:50:06.456Z,21.78
2022-07-30T22:52:50.167Z,21.67
2022-07-30T22:55:23.819Z,21.70
2022-07-30T22:57:51.549Z,21.63
2022-07-30T23:00:27.495Z,21.63
2022-07-30T23:02:56.126Z,21.62
2022-07-30T23:05:23.552Z,21.63
2022-07-30T23:07:50.561Z,21.62
2022-07-30T23:10:18.621Z,21.61
2022-07-30T23:12:48.980Z,21.59
2022-07-30T23:15:15.891Z,21.66
2022-07-30T23:17:43.716Z,21.52
2022-07-30T23:20:13.677Z,21.48
2022-07-30T23:22:40.803Z,21.42
2022-07-30T23:25:10.358Z,21.46
2022-07-30T23:27:37.364Z,21.51
2022-07-30T23:30:04.358Z,21.46
2022-07-30T23:32:31.313Z,21.45
2022-07-30T23:34:57.966Z,21.36
2022-07-30T23:37:24.628Z,21.41
2022-07-30T23:39:51.375Z,21.39
2022-07-30T23:42:18.826Z,21.37
2022-07-30T23:44:45.496Z,21.45
2022-07-30T23:47:12.415Z,21.43
2022-07-30T23:49:39.095Z,21.37
2022-07-30T23:52:05.715Z,21.29
2022-07-30T23:54:32.453Z,21.33
2022-07-30T23:56:59.274Z,21.23
2022-07-30T23:59:40.929Z,21.24
